createdAt,value
2018-07-13T00:03:01.939Z,-59
2018-07-13T00:13:18.892Z,-56
2018-07-13T00:23:17.077Z,-57
2018-07-13T00:33:14.554Z,-57
2018-07-13T00:43:02.001Z,-59
2018-07-13T00:53:01.948Z,-58
2018-07-13T01:03:02.077Z,-57
2018-07-13T01:13:01.996Z,-57
2018-07-13T01:23:02.112Z,-59
2018-07-13T01:33:02.130Z,-58
2018-07-13T01:43:02.045Z,-58
2018-07-13T01:53:02.129Z,-58
2018-07-13T02:03:02.068Z,-58
2018-07-13T02:13:02.155Z,-58
2018-07-13T02:29:29.238Z,-57
2018-07-13T02:33:02.045Z,-60
2018-07-13T02:43:02.188Z,-59
2018-07-13T02:53:02.074Z,-57
2018-07-13T03:03:02.177Z,-58
2018-07-13T03:13:02.111Z,-57
2018-07-13T03:23:02.239Z,-58
2018-07-13T03:33:02.159Z,-58
2018-07-13T03:43:02.209Z,-57
2018-07-13T03:59:29.472Z,-57
2018-07-13T04:03:02.155Z,-58
2018-07-13T04:13:02.211Z,-58
2018-07-13T04:23:02.259Z,-59
2018-07-13T04:33:02.231Z,-58
2018-07-13T04:43:02.266Z,-58
2018-07-13T04:53:02.294Z,-58
2018-07-13T05:03:02.344Z,-59
2018-07-13T05:13:02.291Z,-59
2018-07-13T05:23:02.290Z,-58
2018-07-13T05:33:02.329Z,-55
2018-07-13T05:43:02.328Z,-58
2018-07-13T05:53:02.374Z,-57
2018-07-13T06:03:02.250Z,-59
2018-07-13T06:13:02.356Z,-58
2018-07-13T06:23:02.322Z,-59
2018-07-13T06:33:02.381Z,-60
2018-07-13T06:43:02.469Z,-59
2018-07-13T06:53:02.386Z,-58
2018-07-13T07:03:02.399Z,-59
2018-07-13T07:13:02.391Z,-56
2018-07-13T07:23:02.474Z,-58
2018-07-13T07:33:02.395Z,-55
2018-07-13T07:43:02.463Z,-58
2018-07-13T07:53:02.478Z,-58
2018-07-13T08:03:02.556Z,-58
2018-07-13T08:13:02.680Z,-59
2018-07-13T08:23:02.447Z,-59
2018-07-13T08:33:02.532Z,-59
2018-07-13T08:43:02.493Z,-60
2018-07-13T08:53:02.646Z,-60
2018-07-13T09:03:02.451Z,-60
2018-07-13T09:13:03.067Z,-55
2018-07-13T09:23:02.561Z,-57
2018-07-13T09:33:05.827Z,-59
2018-07-13T09:43:02.689Z,-60
2018-07-13T09:53:02.594Z,-61
2018-07-13T10:03:02.575Z,-61
2018-07-13T10:13:02.431Z,-61
2018-07-13T10:23:02.535Z,-58
2018-07-13T10:33:02.430Z,-59
2018-07-13T10:43:02.441Z,-61
2018-07-13T10:53:02.400Z,-60
2018-07-13T11:03:02.449Z,-59
2018-07-13T11:13:02.508Z,-61
2018-07-13T11:23:02.621Z,-61
2018-07-13T11:33:02.549Z,-61
2018-07-13T11:43:02.429Z,-61
2018-07-13T11:53:02.487Z,-61
2018-07-13T12:03:02.433Z,-61
2018-07-13T12:13:02.471Z,-62
2018-07-13T12:23:02.464Z,-60
2018-07-13T12:33:02.537Z,-61
2018-07-13T12:43:02.462Z,-62
2018-07-13T12:53:02.511Z,-60
2018-07-13T13:03:02.422Z,-61
2018-07-13T13:13:02.582Z,-60
2018-07-13T13:23:02.569Z,-62
2018-07-13T13:33:02.603Z,-62
2018-07-13T13:43:02.598Z,-61
2018-07-13T13:53:03.448Z,-60
2018-07-13T14:03:02.525Z,-59
2018-07-13T14:13:02.557Z,-62
2018-07-13T14:23:02.463Z,-62
2018-07-13T14:33:02.534Z,-61
2018-07-13T14:43:02.493Z,-65
2018-07-13T14:53:02.580Z,-61
2018-07-13T15:03:02.490Z,-62
2018-07-13T15:13:02.543Z,-61
2018-07-13T15:23:02.600Z,-62
2018-07-13T15:33:02.514Z,-63
2018-07-13T15:43:02.516Z,-64
2018-07-13T15:53:02.497Z,-57
2018-07-13T16:03:02.570Z,-61
2018-07-13T16:13:03.104Z,-62
2018-07-13T16:23:02.618Z,-65
2018-07-13T16:33:02.570Z,-67
2018-07-13T16:43:02.513Z,-63
2018-07-13T16:53:02.565Z,-64
2018-07-13T17:03:02.673Z,-61
2018-07-13T17:13:02.561Z,-62
2018-07-13T17:23:02.558Z,-61
2018-07-13T17:33:02.525Z,-60
2018-07-13T17:43:02.719Z,-65
2018-07-13T17:53:02.521Z,-67
2018-07-13T18:03:02.767Z,-62
2018-07-13T18:13:03.643Z,-61
2018-07-13T18:23:02.962Z,-61
2018-07-13T18:33:02.578Z,-63
2018-07-13T18:43:02.810Z,-61
2018-07-13T18:53:02.558Z,-61
2018-07-13T19:03:02.658Z,-60
2018-07-13T19:13:02.657Z,-61
2018-07-13T19:23:02.665Z,-60
2018-07-13T19:33:02.642Z,-61
2018-07-13T19:43:02.798Z,-61
2018-07-13T19:53:02.664Z,-59
2018-07-13T20:03:02.751Z,-59
2018-07-13T20:13:02.614Z,-59
2018-07-13T20:23:02.792Z,-59
2018-07-13T20:33:02.818Z,-59
2018-07-13T20:43:02.764Z,-60
2018-07-13T20:53:02.985Z,-60
2018-07-13T21:03:03.425Z,-59
2018-07-13T21:13:03.761Z,-59
2018-07-13T21:23:03.293Z,-58
2018-07-13T21:33:02.935Z,-60
2018-07-13T21:43:03.288Z,-59
2018-07-13T21:53:03.342Z,-60
2018-07-13T22:03:03.114Z,-58
2018-07-13T22:13:04.349Z,-58
2018-07-13T22:23:03.522Z,-59
2018-07-13T22:33:02.808Z,-60
2018-07-13T22:43:02.580Z,-58
2018-07-13T22:53:02.679Z,-58
2018-07-13T23:03:02.583Z,-56
2018-07-13T23:13:02.596Z,-58
2018-07-13T23:23:02.655Z,-58
2018-07-13T23:33:02.644Z,-60
2018-07-13T23:43:02.628Z,-59
2018-07-13T23:53:02.628Z,-59
